NCAR-RAP Real-Time Weather Data

Output produced by METARs form (25 June 2022  04:11 UTC)
found at http://weather.rap.ucar.edu/surface/
 
KMUI 250356Z AUTO 00000KT 9SM CLR 18/17 A3006 RMK AO2 SLP180 T01770169 $
KMUI 250256Z AUTO 00000KT 10SM M 18/17 A3006 RMK AO2 SLP181 T01800170 51008 $
KMUI 250156Z 00000KT 10SM FEW200 19/18 A3006 RMK AO2A SLP180 T01920177
KMUI 250056Z 00000KT 10SM FEW200 20/18 A3005 RMK AO2A SLP177 T02040181
KMUI 242356Z 00000KT 10SM FEW200 24/18 A3003 RMK AO2A SLP170 T02440183 10264 20235 53004
KMUI 242256Z 22005KT 10SM FEW045 26/17 A3002 RMK AO2A SLP166 T02580172
KMUI 242156Z 00000KT 10SM FEW040 26/17 A3002 RMK AO2A SLP166 T02610174
KMUI 242056Z 24005KT 10SM FEW030 26/18 A3002 RMK AO2A SLP166 T02600176 57005
KMUI 241956Z 20007KT 10SM SCT030 26/18 A3003 RMK AO2A SLP170 T02560178
KMUI 241856Z 22006KT 10SM SCT028 25/18 A3003 RMK AO2A SLP170 T02520184
KMUI 241756Z 22004KT 10SM BKN023 24/18 A3004 RMK AO2A SLP174 T02350179 10238 20162 58011
KMUI 241656Z 19006KT 10SM FEW012 BKN021 23/18 A3006 RMK AO2A SLP180 T02260181
KMUI 241622Z 00000KT 7SM SCT010 OVC018 21/17 A3007 RMK AO2A SLP184